createdAt,value
2022-08-28T00:00:33.069Z,24.35
2022-08-28T00:03:00.588Z,24.35
2022-08-28T00:05:28.165Z,24.20
2022-08-28T00:07:56.375Z,24.22
2022-08-28T00:10:23.691Z,24.04
2022-08-28T00:12:52.011Z,23.95
2022-08-28T00:15:20.738Z,23.42
2022-08-28T00:17:48.147Z,23.95
2022-08-28T00:20:15.007Z,24.15
2022-08-28T00:22:42.283Z,23.55
2022-08-28T00:25:09.699Z,23.36
2022-08-28T00:27:38.045Z,22.27
2022-08-28T00:30:05.957Z,22.91
2022-08-28T00:32:39.761Z,21.91
2022-08-28T00:35:06.728Z,21.87
2022-08-28T00:37:33.391Z,21.67
2022-08-28T00:40:00.796Z,21.96
2022-08-28T00:42:28.930Z,21.69
2022-08-28T00:44:56.331Z,22.31
2022-08-28T00:47:22.985Z,23.10
2022-08-28T00:49:50.833Z,23.64
2022-08-28T00:52:17.550Z,23.87
2022-08-28T00:54:58.899Z,23.73
2022-08-28T00:57:27.830Z,22.80
2022-08-28T00:59:55.507Z,22.77
2022-08-28T01:02:22.197Z,23.52
2022-08-28T01:04:48.931Z,23.67
2022-08-28T01:07:15.657Z,23.71
2022-08-28T01:09:42.858Z,23.89
2022-08-28T01:12:13.404Z,23.88
2022-08-28T01:14:40.335Z,23.73
2022-08-28T01:17:06.986Z,23.55
2022-08-28T01:19:33.935Z,23.75
2022-08-28T01:22:00.932Z,24.08
2022-08-28T01:24:27.868Z,23.63
2022-08-28T01:26:57.373Z,23.96
2022-08-28T01:29:24.298Z,23.00
2022-08-28T01:31:51.336Z,23.53
2022-08-28T01:34:18.406Z,23.71
2022-08-28T01:36:45.193Z,22.65
2022-08-28T01:39:11.896Z,21.85
2022-08-28T01:41:38.939Z,21.69
2022-08-28T01:44:05.484Z,21.66
2022-08-28T01:49:49.336Z,21.18
2022-08-28T01:52:16.265Z,21.58
2022-08-28T01:54:43.698Z,22.12
2022-08-28T01:57:10.701Z,22.46
2022-08-28T01:59:38.264Z,21.97
2022-08-28T02:02:07.946Z,22.69
2022-08-28T02:04:35.002Z,22.53
2022-08-28T02:07:02.349Z,23.01
2022-08-28T02:09:29.272Z,23.29
2022-08-28T02:11:56.923Z,23.16
2022-08-28T02:14:23.737Z,22.35
2022-08-28T02:16:50.448Z,21.76
2022-08-28T02:19:17.234Z,21.16
2022-08-28T02:21:44.859Z,21.34
2022-08-28T02:24:11.661Z,21.21
2022-08-28T02:26:38.951Z,20.47
2022-08-28T02:29:07.719Z,20.61
2022-08-28T02:31:35.221Z,21.12
2022-08-28T02:34:02.165Z,21.58
2022-08-28T02:36:28.878Z,20.97
2022-08-28T02:38:57.928Z,20.68
2022-08-28T02:41:24.980Z,20.87
2022-08-28T02:43:52.299Z,21.02
2022-08-28T02:46:20.058Z,20.70
2022-08-28T02:48:46.586Z,20.87
2022-08-28T02:51:13.520Z,20.65
2022-08-28T02:53:40.468Z,21.29
2022-08-28T02:56:07.810Z,21.57
2022-08-28T02:58:34.836Z,21.72
2022-08-28T03:01:01.945Z,21.59
2022-08-28T03:03:29.076Z,21.01
2022-08-28T03:05:56.428Z,20.58
2022-08-28T03:08:27.190Z,20.43
2022-08-28T03:10:54.277Z,20.09
2022-08-28T03:13:26.590Z,20.18
2022-08-28T03:15:55.996Z,20.37
2022-08-28T03:18:22.954Z,20.39
2022-08-28T03:20:53.662Z,20.64
2022-08-28T03:23:27.917Z,20.68
2022-08-28T03:25:55.244Z,21.10
2022-08-28T03:28:22.967Z,20.15
2022-08-28T03:30:49.702Z,20.03
2022-08-28T03:33:16.709Z,20.06
2022-08-28T03:35:43.697Z,20.13
2022-08-28T03:38:11.030Z,19.77
2022-08-28T03:40:37.891Z,19.76
2022-08-28T03:43:04.549Z,20.21
2022-08-28T03:45:34.384Z,20.08
2022-08-28T03:48:01.945Z,20.02
2022-08-28T03:50:29.508Z,19.87
2022-08-28T03:52:56.268Z,19.99
2022-08-28T03:55:23.605Z,20.10
2022-08-28T03:57:55.184Z,19.77
2022-08-28T04:00:22.102Z,19.82
2022-08-28T04:02:51.209Z,19.80
2022-08-28T04:05:18.206Z,19.97
2022-08-28T04:07:45.143Z,19.72
2022-08-28T04:10:11.711Z,19.71
2022-08-28T04:12:38.677Z,19.59
2022-08-28T04:15:07.150Z,19.79
2022-08-28T04:17:37.768Z,19.54
2022-08-28T04:20:05.195Z,19.48
2022-08-28T04:22:31.972Z,20.05
2022-08-28T04:24:58.551Z,20.24
2022-08-28T04:27:25.230Z,20.57
2022-08-28T04:29:52.156Z,20.38
2022-08-28T04:32:21.182Z,20.24
2022-08-28T04:34:50.179Z,20.15
2022-08-28T04:37:18.866Z,20.45
2022-08-28T04:39:45.442Z,20.68
2022-08-28T04:42:14.750Z,20.04
2022-08-28T04:44:44.057Z,19.51
2022-08-28T04:47:10.664Z,19.35
2022-08-28T04:49:37.293Z,19.28
2022-08-28T04:52:03.927Z,19.45
2022-08-28T04:54:30.487Z,19.48
2022-08-28T04:56:57.063Z,19.24
2022-08-28T04:59:23.850Z,19.16
2022-08-28T05:01:50.531Z,19.37
2022-08-28T05:04:17.254Z,20.06
2022-08-28T05:06:44.982Z,20.22
2022-08-28T05:09:12.407Z,19.92
2022-08-28T05:11:39.322Z,19.67
2022-08-28T05:14:06.296Z,19.85
2022-08-28T05:16:33.243Z,19.98
2022-08-28T05:19:01.845Z,19.86
2022-08-28T05:21:35.954Z,19.49
2022-08-28T05:24:03.395Z,20.09
2022-08-28T05:26:30.189Z,20.90
2022-08-28T05:28:59.991Z,21.10
2022-08-28T05:31:35.031Z,20.27
2022-08-28T05:34:02.043Z,19.68
2022-08-28T05:36:40.961Z,19.69
2022-08-28T05:39:34.097Z,19.84
2022-08-28T05:42:01.036Z,19.47
2022-08-28T05:44:28.537Z,19.51
2022-08-28T05:46:56.048Z,19.13
2022-08-28T05:49:22.946Z,19.13
2022-08-28T05:51:49.837Z,19.37
2022-08-28T05:54:16.871Z,19.27
2022-08-28T05:56:43.555Z,19.30
2022-08-28T05:59:10.240Z,19.36
2022-08-28T06:01:37.857Z,19.84
2022-08-28T06:04:06.447Z,19.75
2022-08-28T06:06:33.233Z,19.61
2022-08-28T06:09:01.185Z,20.23
2022-08-28T06:11:31.044Z,20.15
2022-08-28T06:13:58.018Z,20.68
2022-08-28T06:16:24.705Z,20.65
2022-08-28T06:18:53.734Z,19.93
2022-08-28T06:21:22.651Z,20.12
2022-08-28T06:23:49.402Z,20.27
2022-08-28T06:26:16.163Z,20.00
2022-08-28T06:28:43.090Z,19.89
2022-08-28T06:31:23.718Z,19.47
2022-08-28T06:33:52.777Z,19.76
2022-08-28T06:36:20.677Z,20.00
2022-08-28T06:38:47.499Z,19.86
2022-08-28T06:44:03.597Z,20.42
2022-08-28T06:46:33.322Z,20.68
2022-08-28T06:49:02.587Z,20.59
2022-08-28T06:51:29.569Z,20.68
2022-08-28T06:54:00.658Z,20.71
2022-08-28T06:56:29.217Z,20.79
2022-08-28T06:58:58.744Z,20.92
2022-08-28T07:01:26.421Z,21.16
2022-08-28T07:04:00.165Z,21.45
2022-08-28T07:06:29.777Z,21.65
2022-08-28T07:08:59.621Z,21.83
2022-08-28T07:11:27.050Z,22.56
2022-08-28T07:13:57.537Z,22.91
2022-08-28T07:16:24.677Z,23.20
2022-08-28T07:18:54.027Z,23.74
2022-08-28T07:21:29.329Z,24.27
2022-08-28T07:23:55.982Z,24.19
2022-08-28T07:26:23.160Z,23.84
2022-08-28T07:28:50.201Z,23.91
2022-08-28T07:31:17.747Z,22.77
2022-08-28T07:33:45.260Z,22.55
2022-08-28T07:36:15.874Z,22.94
2022-08-28T07:38:58.132Z,22.87
2022-08-28T07:41:25.306Z,23.16
2022-08-28T07:43:51.989Z,23.57
2022-08-28T07:46:18.870Z,24.03
2022-08-28T07:48:47.659Z,24.51
2022-08-28T07:51:14.683Z,24.00
2022-08-28T07:53:41.393Z,23.94
2022-08-28T07:56:07.974Z,24.39
2022-08-28T07:58:35.545Z,24.97
2022-08-28T08:01:02.657Z,25.29
2022-08-28T08:03:29.729Z,25.61
2022-08-28T08:06:01.519Z,25.85
2022-08-28T08:08:28.712Z,25.57
2022-08-28T08:10:57.761Z,25.89
2022-08-28T08:13:26.234Z,25.43
2022-08-28T08:15:53.482Z,25.92
2022-08-28T08:18:20.846Z,26.01
2022-08-28T08:20:51.831Z,26.04
2022-08-28T08:23:19.443Z,26.01
2022-08-28T08:25:48.229Z,26.03
2022-08-28T08:28:15.983Z,25.22
2022-08-28T08:30:43.671Z,25.33
2022-08-28T08:33:12.244Z,25.73
2022-08-28T08:35:39.160Z,26.15
2022-08-28T08:38:07.825Z,26.10
2022-08-28T08:40:34.978Z,26.53
2022-08-28T08:43:01.707Z,26.35
2022-08-28T08:45:28.622Z,26.43
2022-08-28T08:47:55.555Z,26.59
2022-08-28T08:50:22.491Z,26.58
2022-08-28T08:52:49.032Z,26.28
2022-08-28T08:55:17.396Z,26.62
2022-08-28T08:57:49.351Z,26.72
2022-08-28T09:00:16.417Z,26.57
2022-08-28T09:02:43.372Z,26.37
2022-08-28T09:05:09.941Z,25.06
2022-08-28T09:07:37.489Z,23.75
2022-08-28T09:10:06.523Z,24.31
2022-08-28T09:15:25.469Z,25.51
2022-08-28T09:17:54.593Z,23.33
2022-08-28T09:20:29.130Z,23.55
2022-08-28T09:22:59.924Z,23.42
2022-08-28T09:27:58.454Z,22.20
2022-08-28T09:30:30.768Z,22.13
2022-08-28T09:32:57.665Z,22.52
2022-08-28T09:35:24.946Z,22.65
2022-08-28T09:37:51.837Z,22.24
2022-08-28T09:40:20.647Z,22.33
2022-08-28T09:42:47.470Z,23.46
2022-08-28T09:45:16.863Z,24.44
2022-08-28T09:47:51.588Z,23.55
2022-08-28T09:50:18.307Z,23.29
2022-08-28T09:52:46.818Z,23.71
2022-08-28T09:55:13.673Z,23.21
2022-08-28T09:57:40.523Z,22.89
2022-08-28T10:00:07.803Z,22.53
2022-08-28T10:02:34.617Z,22.80
2022-08-28T10:05:06.792Z,23.08
2022-08-28T10:07:34.284Z,23.64
2022-08-28T10:10:02.855Z,23.68
2022-08-28T10:12:36.672Z,23.72
2022-08-28T10:15:04.255Z,24.29
2022-08-28T10:17:32.912Z,24.75
2022-08-28T10:20:01.896Z,25.18
2022-08-28T10:22:28.856Z,26.18
2022-08-28T10:24:56.252Z,26.19
2022-08-28T10:27:23.045Z,25.24
2022-08-28T10:32:40.381Z,25.02
2022-08-28T10:35:07.155Z,24.26
2022-08-28T10:37:37.699Z,24.55
2022-08-28T10:40:13.569Z,25.29
2022-08-28T10:42:40.269Z,23.77
2022-08-28T10:45:11.075Z,23.76
2022-08-28T10:47:37.781Z,22.66
2022-08-28T10:50:06.647Z,23.47
2022-08-28T10:52:33.983Z,23.69
2022-08-28T10:55:01.467Z,24.77
2022-08-28T10:57:29.947Z,25.29
2022-08-28T10:59:58.141Z,24.18
2022-08-28T11:02:25.155Z,24.73
2022-08-28T11:04:56.480Z,24.38
2022-08-28T11:07:26.554Z,25.74
2022-08-28T11:09:53.171Z,26.40
2022-08-28T11:12:22.128Z,25.48
2022-08-28T11:14:50.595Z,26.03
2022-08-28T11:17:17.175Z,25.00
2022-08-28T11:19:49.065Z,26.01
2022-08-28T11:22:19.164Z,26.61
2022-08-28T11:24:46.650Z,27.38
2022-08-28T11:27:14.150Z,26.68
2022-08-28T11:29:40.822Z,26.96
2022-08-28T11:32:10.014Z,26.80
2022-08-28T11:34:37.385Z,27.17
2022-08-28T11:37:04.365Z,27.49
2022-08-28T11:39:31.187Z,27.16
2022-08-28T11:41:58.623Z,26.98
2022-08-28T11:44:25.877Z,26.23
2022-08-28T11:52:38.668Z,27.27
2022-08-28T11:55:05.562Z,27.39
2022-08-28T11:57:32.384Z,26.84
2022-08-28T12:00:01.012Z,26.95
2022-08-28T12:02:27.952Z,26.94
2022-08-28T12:04:54.928Z,26.29
2022-08-28T12:07:21.521Z,27.01
2022-08-28T12:09:49.412Z,27.12
2022-08-28T12:12:16.300Z,27.30
2022-08-28T12:14:47.012Z,27.16
2022-08-28T12:17:13.889Z,27.26
2022-08-28T12:19:52.105Z,27.10
2022-08-28T12:22:23.975Z,26.64
2022-08-28T12:24:50.835Z,26.52
2022-08-28T12:27:18.321Z,26.27
2022-08-28T12:29:45.379Z,26.17
2022-08-28T12:32:13.054Z,26.53
2022-08-28T12:34:39.859Z,26.51
2022-08-28T12:37:06.499Z,26.16
2022-08-28T12:39:33.430Z,26.84
2022-08-28T12:42:02.338Z,26.82
2022-08-28T12:44:31.088Z,25.82
2022-08-28T12:47:00.151Z,26.18
2022-08-28T12:49:28.348Z,26.43
2022-08-28T12:51:55.029Z,26.73
2022-08-28T12:54:24.141Z,26.52
2022-08-28T12:56:50.860Z,26.78
2022-08-28T12:59:17.857Z,26.63
2022-08-28T13:01:45.468Z,27.10
2022-08-28T13:04:12.292Z,27.23
2022-08-28T13:06:39.617Z,27.25
2022-08-28T13:09:06.553Z,26.85
2022-08-28T13:11:36.799Z,27.02
2022-08-28T13:14:10.503Z,27.06
2022-08-28T13:16:37.368Z,27.63
2022-08-28T13:19:04.328Z,27.22
2022-08-28T13:21:33.927Z,27.38
2022-08-28T13:24:01.364Z,27.58
2022-08-28T13:26:28.588Z,27.72
2022-08-28T13:28:55.150Z,27.41
2022-08-28T13:31:22.325Z,27.20
2022-08-28T13:33:49.184Z,27.40
2022-08-28T13:36:16.606Z,27.73
2022-08-28T13:38:43.509Z,27.76
2022-08-28T13:41:10.109Z,27.27
2022-08-28T13:43:36.667Z,27.68
2022-08-28T13:46:04.423Z,27.95
2022-08-28T13:48:31.279Z,27.77
2022-08-28T13:50:58.179Z,27.91
2022-08-28T13:53:24.808Z,27.95
2022-08-28T13:55:52.857Z,28.27
2022-08-28T13:58:20.530Z,28.12
2022-08-28T14:00:47.263Z,28.22
2022-08-28T14:03:14.435Z,28.02
2022-08-28T14:05:41.270Z,27.76
2022-08-28T14:08:08.284Z,27.83
2022-08-28T14:10:36.825Z,27.85
2022-08-28T14:13:05.947Z,27.97
2022-08-28T14:15:35.413Z,27.84
2022-08-28T14:18:02.282Z,28.07
2022-08-28T14:20:30.700Z,28.25
2022-08-28T14:22:57.521Z,28.30
2022-08-28T14:25:24.256Z,28.15
2022-08-28T14:27:51.145Z,28.51
2022-08-28T14:30:19.998Z,28.20
2022-08-28T14:32:48.542Z,28.41
2022-08-28T14:35:15.283Z,28.35
2022-08-28T14:37:42.661Z,28.43
2022-08-28T14:40:09.492Z,28.88
2022-08-28T14:42:36.532Z,28.95
2022-08-28T14:45:03.327Z,28.73
2022-08-28T14:47:30.193Z,28.96
2022-08-28T14:49:57.125Z,28.93
2022-08-28T14:52:24.047Z,29.01
2022-08-28T14:54:52.828Z,28.97
2022-08-28T14:57:21.803Z,28.80
2022-08-28T14:59:48.494Z,28.75
2022-08-28T15:02:15.323Z,28.05
2022-08-28T15:04:42.035Z,28.40
2022-08-28T15:07:08.753Z,28.47
2022-08-28T15:09:35.364Z,28.09
2022-08-28T15:12:02.386Z,28.48
2022-08-28T15:14:29.266Z,28.74
2022-08-28T15:16:56.173Z,28.58
2022-08-28T15:19:23.435Z,28.87
2022-08-28T15:21:50.526Z,29.04
2022-08-28T15:24:20.041Z,28.69
2022-08-28T15:26:49.074Z,28.47
2022-08-28T15:29:15.944Z,28.27
2022-08-28T15:31:44.126Z,28.39
2022-08-28T15:34:14.344Z,28.57
2022-08-28T15:36:41.273Z,28.75
2022-08-28T15:39:08.173Z,28.73
2022-08-28T15:41:35.004Z,28.52
2022-08-28T15:44:01.529Z,28.64
2022-08-28T15:46:28.373Z,28.76
2022-08-28T15:48:55.228Z,28.94
2022-08-28T15:51:26.092Z,28.73
2022-08-28T15:53:53.100Z,28.72
2022-08-28T15:56:26.909Z,28.73
2022-08-28T15:58:53.586Z,28.51
2022-08-28T16:01:21.672Z,28.75
2022-08-28T16:03:49.370Z,28.75
2022-08-28T16:06:16.335Z,28.67
2022-08-28T16:08:43.145Z,28.93
2022-08-28T16:11:09.719Z,29.00
2022-08-28T16:13:36.329Z,28.95
2022-08-28T16:16:03.250Z,28.72
2022-08-28T16:18:29.845Z,28.81
2022-08-28T16:20:58.737Z,28.73
2022-08-28T16:23:31.531Z,28.76
2022-08-28T16:25:58.918Z,28.39
2022-08-28T16:28:28.001Z,28.28
2022-08-28T16:30:57.932Z,28.32
2022-08-28T16:33:26.092Z,28.28
2022-08-28T16:35:56.033Z,28.32
2022-08-28T16:38:23.203Z,28.02
2022-08-28T16:40:52.787Z,28.06
2022-08-28T16:43:20.196Z,28.01
2022-08-28T16:45:47.129Z,27.98
2022-08-28T16:48:16.221Z,27.96
2022-08-28T16:50:42.969Z,28.06
2022-08-28T16:53:10.786Z,27.99
2022-08-28T16:55:38.450Z,27.98
2022-08-28T16:58:05.950Z,28.06
2022-08-28T17:00:34.056Z,28.05
2022-08-28T17:03:13.491Z,27.88
2022-08-28T17:05:41.197Z,27.88
2022-08-28T17:08:09.458Z,27.90
2022-08-28T17:10:38.224Z,27.41
2022-08-28T17:13:04.944Z,27.52
2022-08-28T17:15:32.112Z,27.37
2022-08-28T17:20:53.499Z,27.44
2022-08-28T17:23:22.229Z,27.63
2022-08-28T17:25:50.971Z,27.51
2022-08-28T17:28:22.478Z,27.74
2022-08-28T17:30:58.671Z,27.79
2022-08-28T17:33:31.010Z,27.82
2022-08-28T17:36:00.003Z,27.85
2022-08-28T17:38:28.533Z,27.78
2022-08-28T17:40:55.432Z,27.76
2022-08-28T17:43:27.287Z,27.65
2022-08-28T17:45:54.258Z,27.75
2022-08-28T17:48:24.015Z,27.76
2022-08-28T17:51:03.497Z,27.56
2022-08-28T17:53:30.263Z,27.55
2022-08-28T17:55:57.587Z,27.62
2022-08-28T18:01:05.647Z,27.28
2022-08-28T18:06:52.970Z,26.36
2022-08-28T18:09:20.023Z,26.82
2022-08-28T18:11:56.959Z,26.78
2022-08-28T18:14:26.367Z,26.12
2022-08-28T18:16:54.054Z,26.17
2022-08-28T18:19:20.575Z,26.54
2022-08-28T18:21:52.159Z,26.00
2022-08-28T18:24:19.099Z,26.00
2022-08-28T19:07:23.226Z,24.77
2022-08-28T19:09:49.812Z,24.29
2022-08-28T19:12:17.739Z,25.10
2022-08-28T19:14:44.519Z,25.46
2022-08-28T19:17:11.462Z,25.46
2022-08-28T19:19:38.443Z,25.70
2022-08-28T19:22:05.800Z,25.70
2022-08-28T19:24:39.844Z,26.15
2022-08-28T19:27:10.532Z,26.10
2022-08-28T19:29:37.573Z,26.47
2022-08-28T19:32:05.597Z,26.56
2022-08-28T19:34:32.551Z,26.43
2022-08-28T19:37:03.027Z,26.37
2022-08-28T19:39:31.953Z,26.46
2022-08-28T20:29:39.608Z,25.71
2022-08-28T20:32:07.073Z,25.78
2022-08-28T20:34:35.448Z,25.72
2022-08-28T20:37:02.507Z,25.61
2022-08-28T20:39:36.853Z,25.21
2022-08-28T20:42:03.500Z,25.20
2022-08-28T20:44:30.546Z,24.96
2022-08-28T20:46:57.381Z,25.10
2022-08-28T20:49:24.766Z,25.07
2022-08-28T20:51:51.630Z,24.94
2022-08-28T20:54:18.436Z,25.25
2022-08-28T20:56:47.316Z,25.40
2022-08-28T20:59:14.210Z,24.53
2022-08-28T21:01:40.871Z,24.43
2022-08-28T21:04:08.146Z,24.31
2022-08-28T21:06:34.939Z,23.99
2022-08-28T21:09:01.790Z,23.92
2022-08-28T21:11:30.648Z,24.33
2022-08-28T21:13:57.635Z,23.97
2022-08-28T21:16:24.585Z,23.98
2022-08-28T21:19:13.994Z,24.07
2022-08-28T21:21:38.404Z,23.75
2022-08-28T21:24:05.057Z,23.93
2022-08-28T21:26:32.035Z,23.91
2022-08-28T21:29:00.933Z,24.27
2022-08-28T21:31:28.541Z,24.89
2022-08-28T21:33:55.391Z,25.30
2022-08-28T21:36:25.124Z,25.40
2022-08-28T21:38:52.328Z,24.89
2022-08-28T21:41:18.971Z,24.89
2022-08-28T21:43:45.713Z,25.29
2022-08-28T21:49:01.096Z,25.72
2022-08-28T21:51:30.992Z,25.71
2022-08-28T21:53:59.834Z,25.78
2022-08-28T21:56:27.165Z,25.76
2022-08-28T21:58:55.873Z,25.27
2022-08-28T22:01:23.167Z,25.35
2022-08-28T22:03:51.957Z,25.59
2022-08-28T22:06:21.380Z,25.68
2022-08-28T22:08:50.426Z,25.53
2022-08-28T22:11:19.979Z,25.33
2022-08-28T22:13:51.816Z,25.17
2022-08-28T22:16:20.632Z,25.12
2022-08-28T22:18:50.316Z,24.90
2022-08-28T22:21:17.097Z,25.21
2022-08-28T22:23:43.875Z,25.05
2022-08-28T22:26:10.679Z,25.06
2022-08-28T22:28:38.772Z,25.15
2022-08-28T22:31:05.678Z,24.45
2022-08-28T22:33:33.056Z,24.32
2022-08-28T22:36:02.532Z,23.91
2022-08-28T22:38:31.555Z,23.61
2022-08-28T22:40:58.373Z,24.34
2022-08-28T22:43:28.931Z,24.80
2022-08-28T22:45:56.281Z,24.97
2022-08-28T22:48:23.769Z,24.96
2022-08-28T22:50:50.543Z,24.22
2022-08-28T22:53:19.134Z,23.88
2022-08-28T22:55:45.887Z,24.16
2022-08-28T22:58:12.703Z,24.18
2022-08-28T23:00:39.481Z,24.62
2022-08-28T23:03:06.438Z,23.74
2022-08-28T23:05:32.964Z,23.73
2022-08-28T23:08:03.510Z,23.43
2022-08-28T23:10:57.547Z,22.58
2022-08-28T23:13:20.348Z,22.45
2022-08-28T23:15:49.453Z,22.61
2022-08-28T23:18:16.278Z,22.63
2022-08-28T23:20:43.945Z,22.89
2022-08-28T23:23:11.215Z,22.98
2022-08-28T23:25:37.753Z,22.58
2022-08-28T23:28:06.596Z,22.40
2022-08-28T23:30:33.293Z,22.18
2022-08-28T23:33:01.746Z,22.03
2022-08-28T23:35:31.107Z,22.74
2022-08-28T23:37:58.337Z,22.83
2022-08-28T23:40:28.152Z,21.86
2022-08-28T23:42:56.654Z,21.96
2022-08-28T23:45:23.905Z,22.18
2022-08-28T23:47:51.094Z,22.29
2022-08-28T23:50:20.118Z,22.11
2022-08-28T23:52:47.387Z,22.24
2022-08-28T23:55:16.468Z,22.04
2022-08-28T23:57:44.247Z,22.10
